BEACH RACE DE LA BAIE DE WISSANT 2022

Epreuve sélectionnée:


LD - 60km - Résultats Scratch

Filtre:

Partants Général Top 5



Recherche:

N° dossard
Nom
Club
LD - 60km - Classement arrivée
Clt Athlète Nat. Club Temps Sexe Cat Finish Split1 Split2 Split3
1 75 MASSAER Joris Team8s|bodhi mtb team 01:32:02 M (1e) Master (1e) 01:32:02 (1e) 00:23:31 (1e) 00:46:22 (1e) 01:09:19 (1e) Partagez votre performance
2 11 VANTORNOUT Klaas Laeremans ct 01:32:03 M (2e) Master (2e) 01:32:03 (2e) 00:23:31 (2e) 00:46:23 (2e) 01:09:19 (2e) Partagez votre performance
3 73 LEROUX Samuel Samuel leroux 01:32:20 M (3e) Senior (1e) 01:32:20 (3e) 00:23:32 (3e) 00:46:23 (3e) 01:09:20 (3e) Partagez votre performance
4 10 IMMING Bram Team de online drogist-agu 01:34:19 M (4e) Master (3e) 01:34:19 (4e) 00:23:51 (5e) 00:47:32 (4e) 01:10:34 (5e) Partagez votre performance
5 88 KEUKELEIRE Jens Ef education-easypost 01:34:21 M (5e) Master (4e) 01:34:21 (5e) 00:23:55 (11e) 00:47:34 (6e) 01:10:40 (8e) Partagez votre performance
6 6 DEFREYNE Cédric Laeremans cycling team 01:34:24 M (6e) Senior (2e) 01:34:24 (6e) 00:23:53 (7e) 00:47:33 (5e) 01:10:34 (4e) Partagez votre performance
7 3 VAN RUYMBEKE Thieme Rpaswork drone-solutions cycling team 01:34:36 M (7e) Senior (3e) 01:34:36 (7e) 00:23:55 (12e) 00:47:39 (12e) 01:10:38 (7e) Partagez votre performance
8 31 FERON Rudy V8 beach team 01:34:42 M (8e) Master (5e) 01:34:42 (8e) 00:23:52 (6e) 00:47:37 (10e) 01:10:36 (6e) Partagez votre performance
9 9 WILS Kim 01:36:49 M (9e) Master (6e) 01:36:49 (9e) 00:23:54 (10e) 00:47:35 (7e) 01:11:59 (9e) Partagez votre performance
10 2 GHYLLEBERT Pieter Ct laeremans 01:36:56 M (10e) Master (7e) 01:36:56 (10e) 00:23:54 (9e) 00:47:38 (11e) 01:12:03 (10e) Partagez votre performance
11 7 CLAUW John-ross Vind! cycling project 01:38:47 M (11e) Senior (4e) 01:38:47 (11e) 00:24:04 (14e) 00:48:56 (13e) 01:14:11 (12e) Partagez votre performance
12 8 MICCOLI Nicolas V8 beach team 01:38:51 M (12e) Senior (5e) 01:38:51 (12e) 00:23:53 (8e) 00:47:36 (8e) 01:12:13 (11e) Partagez votre performance
13 55 MERCIER Ward Cycling team houtland-westkust 01:40:50 M (13e) Master (8e) 01:40:50 (13e) 00:23:59 (13e) 00:49:51 (15e) 01:15:04 (14e) Partagez votre performance
14 5 TAVEIRNE Anthony Rpaswork drone-solutions cycling team 01:41:03 M (14e) Master (9e) 01:41:03 (14e) 00:24:10 (15e) 00:49:50 (14e) 01:15:05 (15e) Partagez votre performance
15 94 BAROUX Nicolas Us gravelinoise 01:41:11 M (15e) Master (10e) 01:41:11 (15e) 00:24:38 (19e) 00:49:55 (18e) 01:15:03 (13e) Partagez votre performance
16 4 DAENINCK Benoit V8 beach team uvc calais 01:41:50 M (16e) Master (11e) 01:41:50 (16e) 00:24:24 (16e) 00:49:54 (17e) 01:15:50 (18e) Partagez votre performance
17 67 SENICOURT Kylian Cc nogent 01:41:52 M (17e) Senior (6e) 01:41:52 (17e) 00:24:26 (17e) 00:49:52 (16e) 01:15:49 (16e) Partagez votre performance
18 58 ROLLANDT Mady Ogs cyclisme 01:42:39 M (18e) Jeunes (1e) 01:42:39 (18e) 00:24:27 (18e) 00:49:57 (19e) 01:15:49 (17e) Partagez votre performance
19 81 LHOMME Théo Tac cyclisme 01:42:48 M (19e) Senior (7e) 01:42:48 (19e) 00:24:44 (20e) 00:50:36 (23e) 01:16:34 (19e) Partagez votre performance
20 35 FOCKE Jim Jim focke 01:42:49 M (20e) Master (12e) 01:42:49 (20e) 00:25:27 (29e) 00:51:09 (28e) 01:16:59 (24e) Partagez votre performance
21 27 DEVINNE Mikael V8 beach-team 01:42:51 M (21e) Master (13e) 01:42:51 (21e) 00:24:48 (21e) 00:50:35 (21e) 01:16:35 (20e) Partagez votre performance
22 26 VANTIELCKE Cedric V8 beach-team 01:42:54 M (22e) Master (14e) 01:42:54 (22e) 00:24:51 (23e) 00:50:35 (22e) 01:16:37 (22e) Partagez votre performance
23 89 BRADEFER Géry Bike 7 racing team 01:43:03 M (23e) Master (15e) 01:43:03 (23e) 00:25:22 (28e) 00:50:49 (25e) 01:16:54 (23e) Partagez votre performance
24 33 MIEZE Sebastien Ech 01:43:35 M (24e) Master (16e) 01:43:35 (24e) 00:24:51 (24e) 00:50:33 (20e) 01:16:36 (21e) Partagez votre performance
25 36 DUCROCQ Dimitri La déjanté de la baie 01:46:03 M (25e) Senior (8e) 01:46:03 (25e) 00:25:29 (31e) 00:51:53 (30e) 01:19:14 (27e) Partagez votre performance
26 52 BOUTOILLE Boris Tac cyclisme 01:46:07 M (26e) Senior (9e) 01:46:07 (26e) 00:24:50 (22e) 00:50:43 (24e) 01:17:54 (26e) Partagez votre performance
27 60 OPSOMER Rik Beachbikers 01:46:10 M (27e) Master (17e) 01:46:10 (27e) 00:25:30 (32e) 00:51:56 (31e) 01:19:15 (28e) Partagez votre performance
28 87 ASSELMAN Kris 01:46:14 M (28e) Master (18e) 01:46:14 (28e) 00:25:34 (33e) 00:52:29 (33e) 01:19:48 (32e) Partagez votre performance
29 62 CLAES Dirk Granfondoteam.be 01:46:24 M (29e) Master (19e) 01:46:24 (29e) 00:26:18 (35e) 00:52:30 (34e) 01:19:47 (31e) Partagez votre performance
30 78 COTTIGNIES Vincent Vincent cottignies 01:46:48 M (30e) Master (20e) 01:46:48 (30e) 00:26:48 (38e) 00:53:37 (36e) 01:20:37 (34e) Partagez votre performance
31 61 MARTHE Romuald Xbike 01:46:49 M (31e) Master (21e) 01:46:49 (31e) 00:24:58 (25e) 00:51:10 (29e) 01:19:16 (29e) Partagez votre performance
32 96 TOORTELBOOM Robbe Kvc noordzeemeeuw 01:46:52 M (32e) Jeunes (2e) 01:46:52 (32e) 00:26:21 (36e) 00:53:39 (37e) 01:20:38 (36e) Partagez votre performance
33 23 TRUNET Clement Etoile cycliste de chateau thierry 01:46:58 M (33e) Senior (10e) 01:46:58 (33e) 00:23:43 (4e) 00:47:37 (9e) 01:20:30 (33e) Partagez votre performance
34 48 MARCQ Youri V8 beach team 01:47:00 M (34e) Senior (11e) 01:47:00 (34e) 00:25:20 (26e) 00:53:17 (35e) 01:20:37 (35e) Partagez votre performance
35 24 BRAZY Julien Usc 01:48:13 M (35e) Master (22e) 01:48:13 (35e) 00:26:06 (34e) 00:52:28 (32e) 01:19:46 (30e) Partagez votre performance
36 57 LEVASSEUR Nicolas Ec hermelinghem 01:48:35 M (36e) Master (23e) 01:48:35 (36e) 00:25:22 (27e) 00:51:06 (26e) 01:17:32 (25e) Partagez votre performance
37 22 MASSON Christophe Geofco doltcini matériel de vélo.com 01:49:26 M (37e) Master (24e) 01:49:26 (37e) 00:26:46 (37e) 00:53:41 (38e) 01:20:40 (37e) Partagez votre performance
38 29 RECOUR Filip Filip recour 01:51:19 M (38e) Master (25e) 01:51:19 (38e) 00:26:59 (40e) 00:53:44 (39e) 01:22:40 (39e) Partagez votre performance
39 91 CARLÉ Jason Granfondoteam 01:51:23 M (39e) Master (26e) 01:51:23 (39e) 00:27:08 (43e) 00:54:10 (40e) 01:22:40 (38e) Partagez votre performance
40 92 NOPPE Christophe Granfondo team jorion desmet 01:51:58 M (40e) Master (27e) 01:51:58 (40e) 00:26:51 (39e) 00:54:25 (41e) 01:22:47 (40e) Partagez votre performance
41 12 MARCEL Hink De online drogist / agu 01:53:54 M (41e) Master (28e) 01:53:54 (41e) 00:27:27 (46e) 00:55:22 (43e) 01:23:43 (42e) Partagez votre performance
42 19 VELDHEER Martijn De online drogist - agu 01:54:15 M (42e) Master (29e) 01:54:15 (42e) 00:27:29 (48e) 00:55:59 (48e) 01:24:41 (46e) Partagez votre performance
43 56 JAECKENS Jürgen Wtc de berghazen 01:54:17 M (43e) Master (30e) 01:54:17 (43e) 00:28:08 (53e) 00:56:33 (53e) 01:25:23 (50e) Partagez votre performance
44 13 VAN BEEK Tijs Wv de kust 01:54:20 M (44e) Master (31e) 01:54:20 (44e) 00:27:49 (51e) 00:56:31 (52e) 01:25:18 (49e) Partagez votre performance
45 42 GURDEBEKE Bjorn Cyclo boutique 01:54:25 M (45e) Master (32e) 01:54:25 (45e) 00:27:24 (45e) 00:55:39 (46e) 01:24:30 (44e) Partagez votre performance
46 59 DEWAELE Jerome Us gravelinoise 01:54:28 M (46e) Master (33e) 01:54:28 (46e) 00:28:08 (52e) 00:56:28 (51e) 01:25:24 (51e) Partagez votre performance
47 93 THERY Stephane Xbike 01:54:40 M (47e) Master (34e) 01:54:40 (47e) 00:27:18 (44e) 00:55:45 (47e) 01:24:33 (45e) Partagez votre performance
48 51 CAPOEN Mehdy Wtc de berghazen 01:54:44 M (48e) Master (35e) 01:54:44 (48e) 00:27:30 (50e) 00:55:17 (42e) 01:23:22 (41e) Partagez votre performance
49 68 VAN LANGENHOVE Danny Granfondoteam.be 01:56:24 M (49e) Master (36e) 01:56:24 (49e) 00:27:27 (47e) 00:55:33 (45e) 01:24:57 (47e) Partagez votre performance
50 49 VANHEULE Eddy Team flixecourt 01:57:36 M (50e) Master (37e) 01:57:36 (50e) 00:28:17 (56e) 00:57:24 (56e) 01:27:42 (53e) Partagez votre performance
51 84 TEN HARTOG Sarah 01:58:17 F (1e) Master (1e) 01:58:17 (51e) 00:29:39 (65e) 00:59:02 (60e) 01:28:12 (54e) Partagez votre performance
52 18 ROGIERS Gregory Cyclo boutique 01:58:25 M (51e) Master